createdAt,value
2018-05-29T00:02:24.893Z,15.57
2018-05-29T00:04:52.386Z,15.17
2018-05-29T00:07:20.615Z,16.00
2018-05-29T00:09:48.092Z,15.23
2018-05-29T00:12:15.577Z,16.57
2018-05-29T00:14:43.805Z,15.77
2018-05-29T00:17:11.273Z,17.40
2018-05-29T00:19:38.760Z,16.57
2018-05-29T00:22:06.224Z,18.13
2018-05-29T00:24:34.497Z,19.73
2018-05-29T00:27:01.945Z,21.63
2018-05-29T00:29:29.443Z,27.10
2018-05-29T00:31:56.909Z,25.97
2018-05-29T00:34:24.396Z,25.70
2018-05-29T00:36:51.861Z,22.50
2018-05-29T00:39:19.344Z,21.20
2018-05-29T00:41:47.569Z,20.70
2018-05-29T00:44:15.051Z,19.17
2018-05-29T00:46:42.528Z,20.00
2018-05-29T00:49:10.772Z,19.80
2018-05-29T00:51:38.232Z,19.43
2018-05-29T00:54:05.708Z,19.10
2018-05-29T00:56:33.937Z,19.10
2018-05-29T00:59:01.420Z,19.33
2018-05-29T01:01:28.892Z,19.00
2018-05-29T01:03:56.378Z,19.10
2018-05-29T01:06:23.861Z,18.70
2018-05-29T01:08:51.346Z,20.47
2018-05-29T01:11:18.818Z,21.83
2018-05-29T01:13:46.304Z,20.77
2018-05-29T01:16:13.826Z,20.97
2018-05-29T01:18:41.292Z,23.07
2018-05-29T01:21:08.773Z,23.33
2018-05-29T01:23:36.236Z,23.33
2018-05-29T01:26:03.726Z,24.10
2018-05-29T01:28:31.197Z,24.70
2018-05-29T01:30:58.663Z,24.60
2018-05-29T01:33:26.154Z,23.30
2018-05-29T01:35:53.687Z,25.03
2018-05-29T01:38:21.168Z,25.63
2018-05-29T01:40:49.402Z,23.67
2018-05-29T01:43:16.893Z,24.17
2018-05-29T01:45:45.117Z,24.90
2018-05-29T01:48:12.578Z,24.60
2018-05-29T01:50:40.073Z,26.80
2018-05-29T01:53:08.309Z,25.40
2018-05-29T01:55:35.789Z,24.80
2018-05-29T01:58:03.277Z,26.13
2018-05-29T02:00:31.522Z,23.80
2018-05-29T02:02:58.981Z,24.47
2018-05-29T02:05:26.461Z,25.73
2018-05-29T02:07:54.697Z,25.73
2018-05-29T02:10:22.186Z,25.27
2018-05-29T02:12:50.415Z,25.50
2018-05-29T02:15:17.877Z,26.03
2018-05-29T02:17:45.361Z,25.30
2018-05-29T02:20:12.860Z,26.97
2018-05-29T02:22:40.318Z,26.00
2018-05-29T02:25:07.797Z,27.73
2018-05-29T02:27:35.256Z,27.97
2018-05-29T02:30:02.726Z,28.10
2018-05-29T02:32:30.974Z,29.20
2018-05-29T02:34:58.444Z,29.03
2018-05-29T02:37:25.901Z,28.90
2018-05-29T02:39:53.395Z,29.17
2018-05-29T02:42:21.633Z,28.50
2018-05-29T02:44:49.110Z,28.57
2018-05-29T02:47:16.590Z,30.10
2018-05-29T02:49:44.822Z,28.87
2018-05-29T02:52:12.283Z,28.87
2018-05-29T02:54:39.765Z,28.93
2018-05-29T02:57:07.313Z,30.60
2018-05-29T02:59:34.791Z,29.97
2018-05-29T03:02:03.033Z,29.47
2018-05-29T03:04:30.511Z,29.73
2018-05-29T03:06:57.977Z,30.33
2018-05-29T03:09:26.228Z,28.30
2018-05-29T03:11:53.694Z,27.63
2018-05-29T03:14:21.157Z,30.13
2018-05-29T03:16:48.632Z,30.20
2018-05-29T03:19:16.856Z,30.03
2018-05-29T03:21:45.961Z,30.30
2018-05-29T03:24:13.429Z,30.80
2018-05-29T03:26:40.892Z,30.43
2018-05-29T03:29:08.446Z,30.97
2018-05-29T03:31:35.917Z,29.77
2018-05-29T03:34:03.377Z,30.90
2018-05-29T03:36:31.612Z,31.40
2018-05-29T03:38:59.080Z,33.10
2018-05-29T03:41:26.549Z,32.27
2018-05-29T03:43:54.097Z,32.43
2018-05-29T03:46:21.557Z,32.80
2018-05-29T03:48:49.801Z,33.87
2018-05-29T03:51:17.274Z,34.03
2018-05-29T03:53:44.732Z,33.73
2018-05-29T03:56:12.221Z,33.70
2018-05-29T03:58:39.697Z,35.07
2018-05-29T04:01:07.222Z,34.87
2018-05-29T04:03:34.700Z,34.57
2018-05-29T04:06:02.938Z,37.03
2018-05-29T04:08:30.397Z,35.90
2018-05-29T04:10:57.888Z,35.27
2018-05-29T04:13:26.126Z,34.40
2018-05-29T04:15:53.661Z,34.00
2018-05-29T04:18:21.845Z,33.50
2018-05-29T04:20:49.317Z,31.33
2018-05-29T04:23:16.798Z,32.33
2018-05-29T04:25:45.051Z,31.40
2018-05-29T04:28:12.513Z,34.23
2018-05-29T04:30:39.993Z,32.90
2018-05-29T04:33:08.233Z,32.20
2018-05-29T04:35:35.688Z,30.67
2018-05-29T04:38:03.173Z,32.27
2018-05-29T04:40:31.422Z,31.70
2018-05-29T04:42:58.893Z,33.37
2018-05-29T04:45:26.388Z,33.80
2018-05-29T04:47:53.887Z,31.97
2018-05-29T04:50:21.349Z,33.30
2018-05-29T04:52:48.840Z,33.20
2018-05-29T04:55:17.081Z,34.50
2018-05-29T04:57:44.546Z,33.83
2018-05-29T05:00:12.031Z,33.60
2018-05-29T05:02:40.297Z,31.53
2018-05-29T05:05:07.754Z,28.43
2018-05-29T05:07:36.037Z,28.73
2018-05-29T05:10:04.413Z,28.80
2018-05-29T05:12:32.652Z,28.00
2018-05-29T05:15:00.477Z,28.60
2018-05-29T05:17:27.949Z,27.70
2018-05-29T05:19:55.416Z,27.90
2018-05-29T05:22:22.920Z,30.83
2018-05-29T05:24:51.152Z,28.00
2018-05-29T05:27:18.638Z,27.67
2018-05-29T05:29:46.197Z,28.87
2018-05-29T05:32:13.664Z,28.20
2018-05-29T05:34:41.929Z,29.03
2018-05-29T05:37:09.488Z,28.33
2018-05-29T05:39:36.958Z,30.40
2018-05-29T05:42:05.201Z,31.63
2018-05-29T05:44:32.682Z,29.87
2018-05-29T05:47:00.915Z,33.07
2018-05-29T05:49:28.405Z,34.07
2018-05-29T05:51:55.872Z,33.57
2018-05-29T05:54:24.109Z,35.40
2018-05-29T05:56:51.601Z,34.17
2018-05-29T05:59:19.877Z,31.00
2018-05-29T06:01:48.114Z,31.20
2018-05-29T06:04:15.606Z,30.00
2018-05-29T06:06:43.828Z,29.03
2018-05-29T06:09:11.298Z,28.20
2018-05-29T06:11:38.801Z,27.70
2018-05-29T06:14:07.044Z,30.60
2018-05-29T06:16:34.506Z,32.17
2018-05-29T06:19:02.001Z,31.20
2018-05-29T06:21:29.468Z,32.10
2018-05-29T06:23:56.953Z,27.80
2018-05-29T06:26:24.433Z,28.53
2018-05-29T06:28:51.910Z,27.13
2018-05-29T06:31:20.225Z,27.93
2018-05-29T06:33:47.685Z,27.37
2018-05-29T06:36:15.149Z,25.13
2018-05-29T06:38:42.708Z,25.27
2018-05-29T06:41:10.897Z,25.27
2018-05-29T06:43:38.351Z,26.00
2018-05-29T06:46:05.835Z,24.67
2018-05-29T06:48:33.308Z,23.70
2018-05-29T06:51:01.548Z,24.70
2018-05-29T06:53:29.036Z,24.70
2018-05-29T06:55:57.267Z,25.00
2018-05-29T06:58:24.745Z,23.80
2018-05-29T07:00:52.223Z,19.20
2018-05-29T07:03:20.485Z,18.17
2018-05-29T07:05:47.956Z,18.90
2018-05-29T07:08:16.193Z,19.00
2018-05-29T07:10:43.673Z,18.10
2018-05-29T07:13:11.158Z,16.30
2018-05-29T07:15:39.391Z,14.70
2018-05-29T07:18:06.877Z,15.50
2018-05-29T07:20:35.117Z,14.97
2018-05-29T07:23:02.592Z,16.17
2018-05-29T07:25:30.070Z,15.50
2018-05-29T07:27:58.305Z,15.10
2018-05-29T07:30:25.776Z,14.00
2018-05-29T07:32:53.261Z,16.23
2018-05-29T07:35:21.492Z,16.73
2018-05-29T07:37:48.959Z,14.83
2018-05-29T07:40:17.959Z,14.63
2018-05-29T07:42:45.413Z,15.17
2018-05-29T07:45:12.889Z,16.23
2018-05-29T07:47:40.361Z,15.13
2018-05-29T07:50:07.824Z,16.40
2018-05-29T07:52:35.361Z,15.43
2018-05-29T07:55:03.621Z,15.07
2018-05-29T07:57:31.849Z,16.60
2018-05-29T07:59:59.435Z,15.83
2018-05-29T08:02:26.925Z,14.97
2018-05-29T08:04:55.157Z,17.63
2018-05-29T08:07:22.635Z,16.80
2018-05-29T08:09:50.106Z,17.43
2018-05-29T08:12:18.341Z,16.93
2018-05-29T08:14:45.828Z,17.33
2018-05-29T08:17:14.810Z,16.70
2018-05-29T08:19:42.276Z,17.67
2018-05-29T08:22:10.533Z,15.27
2018-05-29T08:24:38.016Z,12.00
2018-05-29T08:27:05.490Z,12.70
2018-05-29T08:29:33.850Z,12.40
2018-05-29T08:32:02.080Z,12.13
2018-05-29T08:34:29.553Z,14.00
2018-05-29T08:36:57.041Z,11.93
2018-05-29T08:39:24.553Z,12.30
2018-05-29T08:41:52.860Z,12.47
2018-05-29T08:44:20.342Z,11.40
2018-05-29T08:46:48.574Z,10.07
2018-05-29T08:49:16.048Z,9.83
2018-05-29T08:51:43.516Z,11.17
2018-05-29T08:54:11.751Z,10.20
2018-05-29T08:56:39.225Z,10.10
2018-05-29T08:59:06.689Z,9.23
2018-05-29T09:01:34.154Z,10.07
2018-05-29T09:04:02.457Z,10.00
2018-05-29T09:06:29.895Z,9.33
2018-05-29T09:08:58.164Z,9.60
2018-05-29T09:11:26.418Z,9.00
2018-05-29T09:13:53.885Z,9.60
2018-05-29T09:16:21.356Z,8.97
2018-05-29T09:18:48.896Z,9.27
2018-05-29T09:21:16.365Z,9.97
2018-05-29T09:23:43.850Z,10.03
2018-05-29T09:26:11.322Z,9.20
2018-05-29T09:28:38.841Z,9.00
2018-05-29T09:31:07.082Z,8.67
2018-05-29T09:33:34.548Z,9.30
2018-05-29T09:36:02.038Z,8.73
2018-05-29T09:38:30.269Z,9.27
2018-05-29T09:40:57.732Z,9.30
2018-05-29T09:43:25.208Z,9.00
2018-05-29T09:45:52.686Z,10.33
2018-05-29T09:48:20.229Z,9.83
2018-05-29T09:50:47.688Z,9.03
2018-05-29T09:53:15.918Z,9.83
2018-05-29T09:55:43.392Z,9.97
2018-05-29T09:58:10.994Z,9.17
2018-05-29T10:00:40.914Z,8.33
2018-05-29T10:03:10.710Z,8.80
2018-05-29T10:05:39.520Z,9.00
2018-05-29T10:08:07.000Z,9.00
2018-05-29T10:10:34.476Z,8.70
2018-05-29T10:13:01.958Z,9.00
2018-05-29T10:15:29.513Z,9.30
2018-05-29T10:17:56.973Z,10.13
2018-05-29T10:20:24.448Z,9.60
2018-05-29T10:22:52.706Z,10.27
2018-05-29T10:25:20.177Z,9.80
2018-05-29T10:27:48.407Z,10.10
2018-05-29T10:30:15.894Z,9.53
2018-05-29T10:32:43.360Z,9.80
2018-05-29T10:35:11.598Z,10.20
2018-05-29T10:37:39.074Z,10.40
2018-05-29T10:40:06.550Z,10.57
2018-05-29T10:42:34.797Z,10.10
2018-05-29T10:45:02.261Z,9.90
2018-05-29T10:47:29.817Z,10.10
2018-05-29T10:49:57.404Z,9.40
2018-05-29T10:52:25.681Z,8.90
2018-05-29T10:54:53.100Z,9.07
2018-05-29T10:57:20.593Z,8.50
2018-05-29T10:59:48.833Z,10.03
2018-05-29T11:02:17.828Z,9.80
2018-05-29T11:04:46.097Z,10.07
2018-05-29T11:07:13.608Z,10.47
2018-05-29T11:09:41.133Z,10.10
2018-05-29T11:12:08.626Z,9.20
2018-05-29T11:14:36.090Z,9.93
2018-05-29T11:17:03.584Z,10.50
2018-05-29T11:19:31.130Z,10.23
2018-05-29T11:21:58.676Z,11.40
2018-05-29T11:24:26.191Z,10.77
2018-05-29T11:26:54.481Z,12.27
2018-05-29T11:29:21.968Z,12.47
2018-05-29T11:31:49.468Z,12.27
2018-05-29T11:34:16.949Z,12.80
2018-05-29T11:36:44.422Z,13.03
2018-05-29T11:39:11.895Z,13.30
2018-05-29T11:41:39.389Z,13.10
2018-05-29T11:44:06.870Z,12.33
2018-05-29T11:46:35.116Z,12.30
2018-05-29T11:49:02.585Z,11.43
2018-05-29T11:51:30.820Z,12.67
2018-05-29T11:53:58.309Z,11.77
2018-05-29T11:56:25.797Z,11.17
2018-05-29T11:58:54.037Z,11.17
2018-05-29T12:01:21.514Z,11.50
2018-05-29T12:03:49.761Z,11.53
2018-05-29T12:06:19.107Z,10.60
2018-05-29T12:08:46.586Z,12.30
2018-05-29T12:11:14.053Z,10.70
2018-05-29T12:13:41.529Z,11.30
2018-05-29T12:16:09.120Z,11.00
2018-05-29T12:18:37.348Z,11.50
2018-05-29T12:21:04.820Z,10.97
2018-05-29T12:23:33.816Z,11.00
2018-05-29T12:26:01.298Z,12.17
2018-05-29T12:28:29.561Z,11.77
2018-05-29T12:30:57.037Z,11.10
2018-05-29T12:33:25.272Z,11.90
2018-05-29T12:35:52.753Z,13.30
2018-05-29T12:38:20.989Z,12.60
2018-05-29T12:40:48.472Z,13.17
2018-05-29T12:43:15.954Z,13.20
2018-05-29T12:45:44.203Z,12.57
2018-05-29T12:48:11.761Z,13.57
2018-05-29T12:50:39.236Z,13.10
2018-05-29T12:53:07.472Z,12.23
2018-05-29T12:55:34.988Z,13.40
2018-05-29T12:58:02.450Z,13.17
2018-05-29T13:00:29.933Z,13.30
2018-05-29T13:02:57.404Z,13.53
2018-05-29T13:05:24.913Z,14.00
2018-05-29T13:07:52.341Z,13.60
2018-05-29T13:10:19.827Z,13.27
2018-05-29T13:12:47.353Z,13.07
2018-05-29T13:15:14.845Z,14.30
2018-05-29T13:17:42.328Z,13.97
2018-05-29T13:20:09.840Z,13.67
2018-05-29T13:22:38.127Z,12.70
2018-05-29T13:25:05.578Z,13.07
2018-05-29T13:27:33.801Z,12.97
2018-05-29T13:30:01.282Z,13.23
2018-05-29T13:32:29.685Z,13.50
2018-05-29T13:34:57.937Z,13.30
2018-05-29T13:37:25.414Z,14.30
2018-05-29T13:39:53.669Z,13.50
2018-05-29T13:42:21.140Z,13.53
2018-05-29T13:44:48.622Z,14.10
2018-05-29T13:47:16.101Z,13.83
2018-05-29T13:49:43.564Z,14.80
2018-05-29T13:52:11.052Z,14.17
2018-05-29T13:54:38.533Z,14.47
2018-05-29T13:57:06.768Z,12.80
2018-05-29T13:59:34.272Z,24.53
2018-05-29T14:02:02.501Z,28.53
2018-05-29T14:04:29.978Z,30.47
2018-05-29T14:06:57.469Z,31.87
2018-05-29T14:09:24.934Z,33.93
2018-05-29T14:11:52.388Z,40.37
2018-05-29T14:14:19.902Z,39.27
2018-05-29T14:16:47.369Z,43.93
2018-05-29T14:19:15.612Z,45.00
2018-05-29T14:21:43.093Z,44.17
2018-05-29T14:24:10.570Z,44.20
2018-05-29T14:26:38.802Z,44.00
2018-05-29T14:29:06.284Z,41.40
2018-05-29T14:31:34.522Z,43.53
2018-05-29T14:34:01.993Z,42.07
2018-05-29T14:36:29.482Z,40.27
2018-05-29T14:38:57.734Z,38.80
2018-05-29T14:41:25.201Z,40.83
2018-05-29T14:43:53.550Z,39.27
2018-05-29T14:46:20.926Z,38.67
2018-05-29T14:48:48.409Z,38.03
2018-05-29T14:51:16.632Z,37.13
2018-05-29T14:53:44.118Z,36.80
2018-05-29T14:56:11.606Z,33.87
2018-05-29T14:58:39.140Z,30.83
2018-05-29T15:01:06.553Z,31.00
2018-05-29T15:03:34.047Z,30.50
2018-05-29T15:06:03.066Z,29.50
2018-05-29T15:08:30.549Z,26.10
2018-05-29T15:10:58.044Z,26.17
2018-05-29T15:13:25.513Z,25.47
2018-05-29T15:15:53.834Z,23.23
2018-05-29T15:18:21.305Z,21.70
2018-05-29T15:20:48.788Z,19.97
2018-05-29T15:23:16.265Z,18.53
2018-05-29T15:25:44.506Z,19.90
2018-05-29T15:28:11.979Z,17.57
2018-05-29T15:30:39.948Z,18.00
2018-05-29T15:33:07.463Z,18.70
2018-05-29T15:35:34.929Z,18.63
2018-05-29T15:38:02.406Z,17.23
2018-05-29T15:40:29.898Z,16.83
2018-05-29T15:42:58.141Z,16.70
2018-05-29T15:45:25.740Z,18.70
2018-05-29T15:47:53.976Z,18.20
2018-05-29T15:50:21.461Z,15.63
2018-05-29T15:52:49.712Z,12.27
2018-05-29T15:55:17.184Z,10.33
2018-05-29T15:57:45.408Z,10.17
2018-05-29T16:00:13.019Z,10.00
2018-05-29T16:02:41.261Z,12.07
2018-05-29T16:05:08.756Z,12.47
2018-05-29T16:07:37.008Z,13.60
2018-05-29T16:10:04.494Z,14.50
2018-05-29T16:12:32.868Z,17.00
2018-05-29T16:15:01.106Z,17.20
2018-05-29T16:17:28.716Z,17.13
2018-05-29T16:19:56.348Z,14.83
2018-05-29T16:22:23.821Z,15.20
2018-05-29T16:24:52.061Z,16.57
2018-05-29T16:27:19.553Z,14.60
2018-05-29T16:29:47.805Z,16.20
2018-05-29T16:32:15.260Z,15.23
2018-05-29T16:34:42.786Z,16.30
2018-05-29T16:37:10.234Z,15.57
2018-05-29T16:39:37.706Z,15.40
2018-05-29T16:42:05.205Z,16.93
2018-05-29T16:44:33.453Z,15.63
2018-05-29T16:47:00.917Z,14.97
2018-05-29T16:49:28.415Z,15.97
2018-05-29T16:51:56.655Z,14.80
2018-05-29T16:54:24.142Z,13.80
2018-05-29T16:56:51.685Z,15.77
2018-05-29T16:59:20.728Z,15.43
2018-05-29T17:01:48.989Z,14.50
2018-05-29T17:04:16.454Z,14.87
2018-05-29T17:06:43.921Z,13.90
2018-05-29T17:09:11.400Z,13.17
2018-05-29T17:11:39.328Z,13.20
2018-05-29T17:14:06.849Z,14.00
2018-05-29T17:16:35.117Z,12.90
2018-05-29T17:19:03.349Z,12.90
2018-05-29T17:21:30.818Z,13.63
2018-05-29T17:23:58.307Z,12.63
2018-05-29T17:26:26.681Z,12.53
2018-05-29T17:28:54.145Z,12.63
2018-05-29T17:31:22.410Z,12.67
2018-05-29T17:33:49.881Z,11.77
2018-05-29T17:36:18.129Z,13.10
2018-05-29T17:38:45.592Z,11.40
2018-05-29T17:41:13.113Z,12.07
2018-05-29T17:43:40.572Z,10.80
2018-05-29T17:46:08.045Z,10.50
2018-05-29T17:48:35.779Z,10.23
2018-05-29T17:51:03.268Z,10.60
2018-05-29T17:53:31.102Z,9.80
2018-05-29T17:55:58.972Z,9.47
2018-05-29T17:58:26.730Z,8.80
2018-05-29T18:00:54.428Z,8.80
2018-05-29T18:03:23.417Z,8.23
2018-05-29T18:05:51.148Z,8.23
2018-05-29T18:08:18.798Z,8.67
2018-05-29T18:10:46.572Z,8.40
2018-05-29T18:13:14.428Z,8.60
2018-05-29T18:15:42.101Z,7.93
2018-05-29T18:18:09.868Z,7.60
2018-05-29T18:20:37.384Z,7.80
2018-05-29T18:23:05.613Z,6.80
2018-05-29T18:25:33.127Z,7.87
2018-05-29T18:28:01.526Z,8.13
2018-05-29T18:30:29.032Z,8.20
2018-05-29T18:32:56.485Z,7.77
2018-05-29T18:35:23.964Z,7.20
2018-05-29T18:37:52.240Z,7.13
2018-05-29T18:40:20.486Z,7.40
2018-05-29T18:42:47.949Z,7.97
2018-05-29T18:45:15.465Z,7.17
2018-05-29T18:47:43.083Z,7.73
2018-05-29T18:50:10.601Z,7.33
2018-05-29T18:52:38.039Z,7.00
2018-05-29T18:55:05.582Z,7.90
2018-05-29T18:57:33.068Z,7.90
2018-05-29T19:00:00.561Z,7.30
2018-05-29T19:02:28.819Z,7.10
2018-05-29T19:04:56.290Z,7.40
2018-05-29T19:07:23.772Z,7.40
2018-05-29T19:09:52.092Z,6.00
2018-05-29T19:12:20.275Z,5.60
2018-05-29T19:14:47.757Z,6.37
2018-05-29T19:17:16.047Z,5.50
2018-05-29T19:19:44.299Z,6.87
2018-05-29T19:22:11.857Z,5.77
2018-05-29T19:24:39.353Z,6.40
2018-05-29T19:27:06.828Z,6.93
2018-05-29T19:29:34.306Z,5.57
2018-05-29T19:32:02.053Z,6.43
2018-05-29T19:34:30.472Z,5.30
2018-05-29T19:36:58.736Z,5.57
2018-05-29T19:39:27.066Z,5.43
2018-05-29T19:41:55.293Z,4.93
2018-05-29T19:44:22.806Z,5.90
2018-05-29T19:46:50.283Z,6.37
2018-05-29T19:49:17.772Z,6.10
2018-05-29T19:51:45.264Z,6.17
2018-05-29T19:54:12.831Z,5.37
2018-05-29T19:56:40.297Z,5.77
2018-05-29T19:59:08.333Z,6.47
2018-05-29T20:01:36.699Z,4.80
2018-05-29T20:04:04.169Z,5.77
2018-05-29T20:06:32.419Z,5.47
2018-05-29T20:08:59.912Z,5.00
2018-05-29T20:11:28.166Z,5.63
2018-05-29T20:13:56.299Z,20.03
2018-05-29T20:16:23.818Z,5.00
2018-05-29T20:18:51.286Z,4.67
2018-05-29T20:21:18.765Z,5.10
2018-05-29T20:23:46.268Z,3.67
2018-05-29T20:26:14.696Z,4.37
2018-05-29T20:28:42.189Z,4.23
2018-05-29T20:31:09.713Z,4.00
2018-05-29T20:33:37.188Z,4.07
2018-05-29T20:36:04.673Z,4.00
2018-05-29T20:38:32.908Z,3.80
2018-05-29T20:41:00.373Z,3.80
2018-05-29T20:43:27.873Z,4.00
2018-05-29T20:45:56.181Z,3.87
2018-05-29T20:48:23.642Z,4.27
2018-05-29T20:50:51.341Z,4.00
2018-05-29T20:53:20.328Z,3.30
2018-05-29T20:55:47.783Z,4.43
2018-05-29T20:58:15.307Z,4.17
2018-05-29T21:00:42.770Z,3.70
2018-05-29T21:03:10.221Z,3.97
2018-05-29T21:05:37.724Z,3.80
2018-05-29T21:08:05.294Z,4.10
2018-05-29T21:10:33.529Z,3.70
2018-05-29T21:13:01.004Z,3.87
2018-05-29T21:15:28.466Z,4.13
2018-05-29T21:17:55.921Z,3.80
2018-05-29T21:20:23.409Z,3.50
2018-05-29T21:22:51.770Z,3.27
2018-05-29T21:25:19.992Z,3.67
2018-05-29T21:27:47.470Z,3.60
2018-05-29T21:30:14.932Z,3.57
2018-05-29T21:32:42.417Z,3.80
2018-05-29T21:35:09.921Z,3.87
2018-05-29T21:37:37.376Z,3.53
2018-05-29T21:40:04.865Z,3.80
2018-05-29T21:42:32.327Z,3.50
2018-05-29T21:44:59.789Z,3.80
2018-05-29T21:47:27.351Z,3.90
2018-05-29T21:49:54.829Z,3.73
2018-05-29T21:52:23.070Z,3.97
2018-05-29T21:54:51.297Z,4.10
2018-05-29T21:57:18.753Z,4.83
2018-05-29T21:59:46.328Z,4.20
2018-05-29T22:02:13.812Z,4.10
2018-05-29T22:04:41.358Z,4.17
2018-05-29T22:07:08.841Z,3.60
2018-05-29T22:09:36.304Z,4.23
2018-05-29T22:14:38.691Z,4.13
2018-05-29T22:17:07.121Z,4.63
2018-05-29T22:19:34.592Z,4.60
2018-05-29T22:22:02.057Z,5.60
2018-05-29T22:24:29.527Z,5.20
2018-05-29T22:26:56.981Z,5.67
2018-05-29T22:29:24.541Z,5.53
2018-05-29T22:31:52.010Z,6.07
2018-05-29T22:34:19.473Z,5.50
2018-05-29T22:36:47.726Z,6.50
2018-05-29T22:39:15.184Z,5.83
2018-05-29T22:41:42.641Z,6.40
2018-05-29T22:44:10.131Z,5.87
2018-05-29T22:46:38.353Z,6.00
2018-05-29T22:49:05.991Z,5.73
2018-05-29T22:51:33.453Z,5.67
2018-05-29T22:54:00.927Z,5.30
2018-05-29T22:56:28.389Z,5.07
2018-05-29T22:58:55.873Z,5.13
2018-05-29T23:01:23.346Z,5.33
2018-05-29T23:03:51.567Z,5.40
2018-05-29T23:06:19.040Z,5.17
2018-05-29T23:08:46.512Z,5.27
2018-05-29T23:11:13.978Z,5.80
2018-05-29T23:13:41.452Z,5.93
2018-05-29T23:16:09.680Z,5.87
2018-05-29T23:18:37.140Z,5.77
2018-05-29T23:21:04.617Z,6.77
2018-05-29T23:23:32.081Z,7.03
2018-05-29T23:26:00.339Z,6.90
2018-05-29T23:28:27.830Z,7.40
2018-05-29T23:30:56.052Z,5.90
2018-05-29T23:33:23.509Z,6.40
2018-05-29T23:35:50.981Z,5.87
2018-05-29T23:38:18.460Z,6.57
2018-05-29T23:40:46.820Z,6.07
2018-05-29T23:43:15.788Z,6.30
2018-05-29T23:45:43.264Z,6.67
2018-05-29T23:48:10.753Z,6.90
2018-05-29T23:50:38.213Z,6.10
2018-05-29T23:53:05.737Z,6.70
2018-05-29T23:55:33.198Z,6.93
2018-05-29T23:58:00.710Z,6.30
